Time;durP1;ratioP1;P1;durP2;ratioP2;P2;SDS_P1;SDS_P2;PMS_P1;PMS_P2;Temp;Humidity;BMP_temperature;BMP_pressure;BME280_temperature;BME280_humidity;BME280_pressure;Samples;Min_cycle;Max_cycle;Signal;HPM_P1;HPM_P2
2022/06/24 00:00:10;;;;;;;5.80;2.02;;;;;;;16.00;85.15;98052.21;1747585;82;20919;-67
2022/06/24 00:02:39;;;;;;;4.03;2.30;;;;;;;15.92;85.46;98051.13;1751764;81;20982;-66
2022/06/24 00:05:10;;;;;;;4.60;2.40;;;;;;;15.87;85.73;98053.22;1747633;81;21114;-68
2022/06/24 00:07:51;;;;;;;3.22;2.12;;;;;;;15.77;86.14;98050.31;1747606;82;21003;-63
2022/06/24 00:10:24;;;;;;;3.85;2.33;;;;;;;15.71;86.57;98048.88;1747857;81;21559;-60
2022/06/24 00:12:52;;;;;;;4.65;2.60;;;;;;;15.65;87.02;98052.88;1746933;82;20915;-66
2022/06/24 00:15:30;;;;;;;3.40;2.37;;;;;;;15.61;87.25;98050.59;1747833;82;21500;-64
2022/06/24 00:18:15;;;;;;;6.50;2.35;;;;;;;15.56;87.60;98052.91;1747600;82;20887;-62
2022/06/24 00:20:43;;;;;;;6.67;2.30;;;;;;;15.51;87.93;98049.02;1747629;81;21529;-62
2022/06/24 00:23:10;;;;;;;4.67;2.67;;;;;;;15.49;88.06;98057.20;1765203;80;20912;-62
2022/06/24 00:25:37;;;;;;;6.83;2.22;;;;;;;15.45;88.27;98057.03;1778628;79;21371;-67
2022/06/24 00:28:09;;;;;;;5.08;2.50;;;;;;;15.41;88.33;98057.96;1778457;80;20881;-65
2022/06/24 00:30:39;;;;;;;4.72;2.10;;;;;;;15.33;88.56;98058.20;1778705;80;21050;-61
2022/06/24 00:33:21;;;;;;;2.85;2.10;;;;;;;15.29;88.85;98057.81;1778675;80;21376;-66
2022/06/24 00:35:50;;;;;;;5.75;2.50;;;;;;;15.27;88.98;98055.99;1778183;79;21357;-64
2022/06/24 00:38:26;;;;;;;3.83;2.10;;;;;;;15.22;89.10;98053.45;1778515;80;20953;-65
2022/06/24 00:41:07;;;;;;;4.97;2.25;;;;;;;15.18;89.26;98055.20;1778711;80;20928;-64
2022/06/24 00:43:43;;;;;;;2.95;2.30;;;;;;;15.13;89.56;98051.31;1778533;80;21085;-63
2022/06/24 00:46:26;;;;;;;5.05;2.60;;;;;;;15.07;89.88;98054.17;1778675;80;21426;-62
2022/06/24 00:48:56;;;;;;;3.50;2.50;;;;;;;15.05;90.12;98052.34;1778538;80;20829;-66
2022/06/24 00:51:25;;;;;;;2.22;1.98;;;;;;;15.01;90.31;98048.70;1778157;79;20936;-61
2022/06/24 00:53:54;;;;;;;3.85;2.02;;;;;;;14.98;90.47;98051.23;1792730;79;20916;-66
2022/06/24 00:56:26;;;;;;;3.17;2.20;;;;;;;14.93;90.54;98046.02;1778402;80;21103;-66
2022/06/24 00:58:57;;;;;;;6.37;2.65;;;;;;;14.87;90.59;98050.77;1778351;80;20841;-64
2022/06/24 01:01:40;;;;;;;3.42;2.30;;;;;;;14.81;90.76;98052.04;1777811;78;21411;-63
2022/06/24 01:04:09;;;;;;;3.42;2.42;;;;;;;14.79;90.96;98048.84;1778439;79;20877;-65
2022/06/24 01:06:40;;;;;;;5.15;2.30;;;;;;;14.76;90.85;98040.05;1778527;79;20912;-65
2022/06/24 01:09:10;;;;;;;4.25;2.10;;;;;;;14.75;90.96;98045.19;1778557;79;21218;-63
2022/06/24 01:11:40;;;;;;;5.60;3.00;;;;;;;14.72;91.16;98043.70;1778343;80;20833;-65
2022/06/24 01:14:07;;;;;;;4.03;2.27;;;;;;;14.68;91.30;98046.22;1793590;79;20876;-64
2022/06/24 01:16:34;;;;;;;4.28;2.30;;;;;;;14.66;91.45;98040.90;1778494;80;20889;-64
2022/06/24 01:19:04;;;;;;;2.92;2.37;;;;;;;14.67;91.58;98039.80;1778430;80;21000;-62
2022/06/24 01:21:44;;;;;;;6.47;2.58;;;;;;;14.66;91.63;98042.25;1778772;80;21482;-66
2022/06/24 01:24:20;;;;;;;7.58;3.15;;;;;;;14.65;91.77;98034.70;1782828;79;20892;-64
2022/06/24 01:26:55;;;;;;;4.12;2.50;;;;;;;14.66;91.94;98039.00;1782430;80;20837;-63
2022/06/24 01:29:21;;;;;;;4.35;2.45;;;;;;;14.67;91.88;98047.34;1783885;79;21443;-66
2022/06/24 01:31:49;;;;;;;3.35;2.33;;;;;;;14.63;91.96;98040.97;1783762;79;20900;-61
2022/06/24 01:34:17;;;;;;;3.75;2.50;;;;;;;14.60;92.05;98046.98;1783752;80;21864;-63
2022/06/24 01:36:45;;;;;;;2.85;2.30;;;;;;;14.57;92.20;98042.24;1783710;79;20920;-66
2022/06/24 01:39:11;;;;;;;3.85;2.62;;;;;;;14.55;92.24;98044.47;1783983;80;21346;-65
2022/06/24 01:41:38;;;;;;;3.35;2.40;;;;;;;14.52;92.25;98045.08;1783861;80;20947;-61
2022/06/24 01:44:05;;;;;;;5.42;2.30;;;;;;;14.50;92.22;98043.26;1783944;79;20880;-61
2022/06/24 01:46:32;;;;;;;4.00;2.67;;;;;;;14.47;92.25;98046.57;1783890;80;21676;-64
2022/06/24 01:49:00;;;;;;;4.80;2.30;;;;;;;14.46;92.30;98044.20;1783720;80;21004;-67
2022/06/24 01:51:27;;;;;;;3.72;2.67;;;;;;;14.43;92.46;98051.02;1783876;79;20896;-65
2022/06/24 01:53:53;;;;;;;7.05;2.80;;;;;;;14.43;92.58;98045.62;1783776;80;20888;-65
2022/06/24 01:56:20;;;;;;;7.67;2.75;;;;;;;14.43;92.57;98040.78;1783907;80;20940;-64
2022/06/24 01:58:47;;;;;;;6.20;2.65;;;;;;;14.41;92.58;98041.10;1783904;79;21192;-66
2022/06/24 02:01:13;;;;;;;4.55;2.77;;;;;;;14.43;92.66;98040.23;1784002;80;21430;-62
2022/06/24 02:03:39;;;;;;;5.12;2.58;;;;;;;14.40;92.69;98042.20;1783773;80;20912;-64
2022/06/24 02:06:10;;;;;;;6.12;2.85;;;;;;;14.38;92.78;98052.50;1783862;79;20928;-66
2022/06/24 02:08:38;;;;;;;5.67;2.60;;;;;;;14.36;92.86;98049.33;1783827;80;20923;-62
2022/06/24 02:13:50;;;;;;;5.90;2.75;;;;;;;14.34;93.07;98058.28;1784062;79;21502;-68
2022/06/24 02:16:18;;;;;;;3.72;2.60;;;;;;;14.32;93.28;98058.58;1783768;79;20953;-65
2022/06/24 02:18:46;;;;;;;3.75;2.80;;;;;;;14.31;93.33;98056.20;1783760;80;20857;-64
2022/06/24 02:21:12;;;;;;;5.65;2.47;;;;;;;14.30;93.39;98059.98;1783847;80;21455;-62
2022/06/24 02:23:39;;;;;;;5.15;2.58;;;;;;;14.28;93.43;98063.52;1781276;79;21096;-62
2022/06/24 02:26:07;;;;;;;7.15;2.70;;;;;;;14.26;93.45;98060.34;1778459;80;20900;-66
2022/06/24 02:28:34;;;;;;;4.42;2.90;;;;;;;14.23;93.43;98063.66;1778530;80;20865;-64
2022/06/24 02:31:01;;;;;;;2.98;2.60;;;;;;;14.20;93.61;98064.30;1778601;80;20924;-66
2022/06/24 02:33:28;;;;;;;6.55;2.90;;;;;;;14.19;93.79;98067.55;1778770;79;21541;-61
2022/06/24 02:35:55;;;;;;;5.22;3.17;;;;;;;14.21;93.90;98069.37;1778730;80;22011;-61
2022/06/24 02:38:22;;;;;;;3.25;2.83;;;;;;;14.21;93.89;98072.61;1778448;80;20971;-66
2022/06/24 02:40:48;;;;;;;3.92;2.98;;;;;;;14.21;94.00;98077.99;1778586;80;21039;-63
2022/06/24 02:43:26;;;;;;;11.93;2.60;;;;;;;14.23;93.99;98082.52;1778894;80;21407;-61
2022/06/24 02:45:56;;;;;;;4.45;2.70;;;;;;;14.25;93.93;98077.06;1778537;79;21388;-67
2022/06/24 02:48:23;;;;;;;6.83;2.80;;;;;;;14.27;93.95;98074.84;1778816;80;21950;-64
2022/06/24 02:50:51;;;;;;;4.05;2.70;;;;;;;14.29;94.03;98082.63;1778527;80;20978;-61
2022/06/24 02:53:19;;;;;;;4.75;2.85;;;;;;;14.28;94.19;98078.34;1778503;80;20873;-61
2022/06/24 02:55:56;;;;;;;5.28;2.98;;;;;;;14.32;94.29;98080.67;1778501;79;20877;-61
2022/06/24 02:58:22;;;;;;;4.87;2.50;;;;;;;14.33;94.35;98086.31;1778766;79;20972;-63
2022/06/24 03:00:48;;;;;;;4.75;2.80;;;;;;;14.36;94.31;98088.39;1778598;79;21209;-66
2022/06/24 03:03:17;;;;;;;4.08;2.95;;;;;;;14.39;94.33;98087.75;1778655;80;21379;-64
2022/06/24 03:05:44;;;;;;;4.25;2.70;;;;;;;14.39;94.39;98087.20;1778492;79;20985;-64
2022/06/24 03:08:14;;;;;;;4.45;2.60;;;;;;;14.42;94.46;98088.48;1778915;79;20892;-60
2022/06/24 03:10:40;;;;;;;3.25;2.55;;;;;;;14.47;94.48;98091.04;1778784;80;21438;-63
2022/06/24 03:13:07;;;;;;;5.60;2.90;;;;;;;14.53;94.31;98091.12;1778493;79;21099;-67
2022/06/24 03:15:34;;;;;;;5.50;3.05;;;;;;;14.56;94.31;98087.81;1778506;80;20868;-61
2022/06/24 03:18:02;;;;;;;5.78;2.80;;;;;;;14.58;94.32;98088.28;1778523;79;20917;-63
2022/06/24 03:20:29;;;;;;;4.17;3.05;;;;;;;14.66;94.12;98087.52;1778538;80;21522;-64
2022/06/24 03:22:55;;;;;;;4.72;2.65;;;;;;;14.73;94.00;98083.81;1776836;80;20884;-62
2022/06/24 03:25:22;;;;;;;4.12;2.70;;;;;;;14.80;93.75;98090.88;1777651;79;21109;-63
2022/06/24 03:27:48;;;;;;;5.85;2.87;;;;;;;14.88;93.41;98093.36;1778536;79;21010;-67
2022/06/24 03:30:14;;;;;;;7.35;3.10;;;;;;;14.94;93.07;98095.58;1778576;80;20919;-64
2022/06/24 03:32:41;;;;;;;5.10;3.17;;;;;;;15.01;92.67;98102.66;1778539;80;21377;-61
2022/06/24 03:35:08;;;;;;;7.45;3.02;;;;;;;15.03;92.23;98100.42;1778512;79;20873;-62
2022/06/24 03:37:35;;;;;;;6.22;2.90;;;;;;;15.07;92.04;98101.38;1778602;79;21088;-61
2022/06/24 03:40:03;;;;;;;6.05;2.60;;;;;;;15.12;91.88;98103.13;1778498;79;20967;-61
2022/06/24 03:42:29;;;;;;;4.35;2.70;;;;;;;15.18;91.78;98101.07;1778446;80;20932;-63
2022/06/24 03:44:56;;;;;;;5.10;2.80;;;;;;;15.21;91.72;98101.80;1778444;80;20889;-65
2022/06/24 03:47:22;;;;;;;6.08;3.30;;;;;;;15.24;91.69;98103.29;1778482;80;20960;-67
2022/06/24 03:49:51;;;;;;;4.55;3.08;;;;;;;15.31;91.54;98110.94;1778554;80;21097;-64
2022/06/24 03:52:18;;;;;;;4.00;2.62;;;;;;;15.38;91.21;98113.37;1778723;79;21376;-67
2022/06/24 03:54:45;;;;;;;7.87;2.72;;;;;;;15.45;90.66;98114.30;1778551;80;20908;-64
2022/06/24 03:57:11;;;;;;;4.25;2.98;;;;;;;15.50;90.49;98119.50;1778389;80;20963;-64
2022/06/24 03:59:38;;;;;;;4.03;2.62;;;;;;;15.54;90.33;98119.13;1778576;80;20921;-62
2022/06/24 04:02:05;;;;;;;9.53;3.02;;;;;;;15.58;90.16;98124.12;1778407;80;21999;-62
2022/06/24 04:04:31;;;;;;;3.95;2.80;;;;;;;15.63;89.76;98129.36;1778654;79;20909;-66
2022/06/24 04:06:58;;;;;;;4.45;2.83;;;;;;;15.67;89.37;98131.09;1778544;80;20984;-66
2022/06/24 04:09:24;;;;;;;7.87;2.80;;;;;;;15.72;89.16;98132.84;1778530;80;20885;-65
2022/06/24 04:11:51;;;;;;;7.20;3.00;;;;;;;15.75;88.90;98126.80;1778562;80;20983;-63
2022/06/24 04:15:13;;;;;;;6.95;3.08;;;;;;;15.80;88.76;98136.09;1793894;79;21062;-66
2022/06/24 04:16:46;;;;;;;5.17;2.70;;;;;;;15.86;88.24;98135.35;1776878;80;20845;-64
2022/06/24 04:19:14;;;;;;;7.08;2.70;;;;;;;15.93;87.54;98132.95;1778412;80;20869;-65
2022/06/24 04:21:40;;;;;;;8.45;2.85;;;;;;;16.01;86.75;98134.30;1778397;80;20955;-64
2022/06/24 04:24:07;;;;;;;8.30;3.17;;;;;;;16.09;86.17;98125.92;1778540;80;20869;-62
2022/06/24 04:26:34;;;;;;;8.50;3.08;;;;;;;16.17;85.75;98133.22;1783094;80;21098;-61
2022/06/24 04:29:01;;;;;;;7.62;3.45;;;;;;;16.22;85.51;98133.84;1783621;79;20975;-61
2022/06/24 04:31:28;;;;;;;7.03;3.12;;;;;;;16.30;85.19;98135.71;1783836;80;21300;-62
2022/06/24 04:33:54;;;;;;;6.00;3.35;;;;;;;16.37;84.74;98131.95;1783748;80;20876;-61
2022/06/24 04:36:21;;;;;;;7.70;3.22;;;;;;;16.44;84.08;98129.53;1783786;80;20893;-62
2022/06/24 04:38:48;;;;;;;7.70;3.30;;;;;;;16.50;83.67;98138.82;1783756;80;21333;-67
2022/06/24 04:41:18;;;;;;;7.15;3.40;;;;;;;16.55;83.44;98137.32;1783568;79;20861;-62
2022/06/24 04:43:45;;;;;;;7.58;3.17;;;;;;;16.61;82.97;98144.13;1783760;80;21253;-62
2022/06/24 04:46:11;;;;;;;11.68;3.27;;;;;;;16.66;82.48;98137.98;1783646;79;20968;-67
2022/06/24 04:48:38;;;;;;;11.88;3.70;;;;;;;16.73;82.05;98144.22;1783682;80;20833;-64
2022/06/24 04:51:06;;;;;;;8.93;3.83;;;;;;;16.80;81.70;98148.56;1783865;80;21977;-66
2022/06/24 04:53:32;;;;;;;8.75;4.33;;;;;;;16.87;81.32;98139.38;1783785;80;21386;-64
2022/06/24 04:55:59;;;;;;;9.98;4.15;;;;;;;16.94;80.97;98138.30;1783744;80;20923;-67
2022/06/24 05:00:59;;;;;;;9.00;4.28;;;;;;;17.05;80.14;98147.64;1783716;79;20920;-67
2022/06/24 05:03:25;;;;;;;10.63;3.65;;;;;;;17.10;79.73;98152.83;1783748;80;21319;-66
2022/06/24 05:05:52;;;;;;;9.78;3.70;;;;;;;17.17;79.39;98146.34;1783678;79;20912;-63
2022/06/24 05:08:18;;;;;;;10.90;4.12;;;;;;;17.26;78.96;98144.95;1783636;79;20979;-64
2022/06/24 05:10:46;;;;;;;12.53;4.00;;;;;;;17.36;78.83;98134.50;1783623;80;20841;-64
2022/06/24 05:13:12;;;;;;;7.33;3.08;;;;;;;17.46;78.37;98144.94;1783968;80;21422;-66
2022/06/24 05:15:39;;;;;;;5.60;3.60;;;;;;;17.56;77.42;98144.58;1783722;80;21100;-66
2022/06/24 05:18:08;;;;;;;4.87;3.30;;;;;;;17.65;76.84;98148.00;1783671;79;20865;-64
2022/06/24 05:20:36;;;;;;;6.10;3.20;;;;;;;17.73;76.70;98149.82;1783661;80;32475;-64
2022/06/24 05:23:03;;;;;;;7.70;2.67;;;;;;;17.81;76.54;98146.02;1799183;79;20992;-65
2022/06/24 05:25:30;;;;;;;6.35;2.33;;;;;;;17.90;76.15;98148.87;1781859;80;21435;-66
2022/06/24 05:27:56;;;;;;;5.75;2.47;;;;;;;17.99;74.96;98155.58;1779071;79;21099;-60
2022/06/24 05:30:23;;;;;;;4.70;2.50;;;;;;;18.07;74.41;98157.39;1796864;79;20991;-65
2022/06/24 05:32:49;;;;;;;8.53;3.10;;;;;;;18.16;74.14;98149.99;1808851;79;21495;-65
2022/06/24 05:35:16;;;;;;;8.55;3.00;;;;;;;18.27;74.00;98152.48;1807331;79;21397;-61
2022/06/24 05:37:43;;;;;;;3.60;2.00;;;;;;;18.35;73.26;98147.52;1808977;79;20890;-62
2022/06/24 05:40:12;;;;;;;5.95;2.60;;;;;;;18.42;72.53;98151.82;1806677;79;22029;-64
2022/06/24 05:42:39;;;;;;;8.70;2.60;;;;;;;18.48;71.88;98153.23;1805455;78;20981;-64
2022/06/24 05:45:07;;;;;;;6.58;2.62;;;;;;;18.53;71.76;98157.09;1809902;78;20918;-65
2022/06/24 05:47:34;;;;;;;6.65;2.80;;;;;;;18.57;71.26;98153.91;1780013;79;20995;-64
2022/06/24 05:50:01;;;;;;;4.95;2.30;;;;;;;18.60;71.13;98154.61;1777074;79;21098;-63
2022/06/24 05:55:12;;;;;;;4.45;2.33;;;;;;;18.70;70.41;98162.27;1794884;79;21063;-64
2022/06/24 05:57:39;;;;;;;5.15;2.08;;;;;;;18.75;69.50;98149.84;1805985;79;21039;-60
2022/06/24 06:00:07;;;;;;;6.37;2.60;;;;;;;18.80;69.51;98157.77;1807887;78;21061;-60
2022/06/24 06:02:34;;;;;;;8.10;2.70;;;;;;;18.89;69.01;98163.86;1804234;78;21406;-62
2022/06/24 06:05:01;;;;;;;8.75;2.83;;;;;;;18.96;68.87;98158.66;1757999;79;21102;-65
2022/06/24 06:07:27;;;;;;;4.92;2.15;;;;;;;19.03;68.20;98160.23;1806739;79;21268;-62
2022/06/24 06:09:55;;;;;;;6.22;2.10;;;;;;;19.10;67.56;98164.52;1806904;79;20961;-61
2022/06/24 06:12:23;;;;;;;5.15;2.25;;;;;;;19.16;66.93;98167.02;1807317;79;20977;-61
2022/06/24 06:14:49;;;;;;;2.90;2.08;;;;;;;19.22;66.61;98166.43;1807397;79;21035;-60
2022/06/24 06:17:15;;;;;;;3.98;1.82;;;;;;;19.30;66.95;98164.73;1806917;79;21526;-64
2022/06/24 06:19:42;;;;;;;6.47;2.15;;;;;;;19.37;66.74;98160.89;1804589;79;20960;-61
2022/06/24 06:22:09;;;;;;;5.15;2.17;;;;;;;19.43;66.28;98163.02;1797119;78;20916;-61
2022/06/24 06:24:35;;;;;;;2.98;2.00;;;;;;;19.50;65.87;98166.53;1794692;79;20896;-62
2022/06/24 06:27:03;;;;;;;5.67;2.05;;;;;;;19.55;65.22;98168.98;1801493;77;21093;-63
2022/06/24 06:29:30;;;;;;;5.05;2.05;;;;;;;19.57;64.64;98165.39;1810901;78;21105;-60
2022/06/24 06:31:57;;;;;;;4.80;2.10;;;;;;;19.62;64.70;98162.40;1804676;77;20952;-62
2022/06/24 06:34:23;;;;;;;3.60;2.10;;;;;;;19.66;64.50;98165.47;1774568;80;20984;-62
2022/06/24 06:36:49;;;;;;;5.15;2.22;;;;;;;19.74;64.20;98165.08;1776680;80;21075;-63
2022/06/24 06:39:16;;;;;;;2.62;1.50;;;;;;;19.81;64.30;98168.00;1764560;79;20993;-61
2022/06/24 06:41:46;;;;;;;3.17;2.05;;;;;;;19.88;61.75;98164.71;1762123;80;21739;-61
2022/06/24 06:44:13;;;;;;;3.65;1.90;;;;;;;19.94;60.64;98165.47;1791103;77;21470;-61
2022/06/24 06:46:41;;;;;;;3.60;2.05;;;;;;;20.01;61.07;98162.94;1803001;78;21016;-62
2022/06/24 06:49:07;;;;;;;2.15;1.85;;;;;;;20.11;61.64;98165.73;1792376;78;20889;-64
2022/06/24 06:51:34;;;;;;;3.67;2.02;;;;;;;20.21;60.99;98162.48;1759836;80;20980;-62
2022/06/24 06:54:00;;;;;;;3.83;1.45;;;;;;;20.29;59.46;98165.09;1745092;81;21106;-66
2022/06/24 06:56:27;;;;;;;3.75;1.42;;;;;;;20.37;58.84;98157.31;1750411;79;20991;-66
2022/06/24 06:58:53;;;;;;;5.12;1.50;;;;;;;20.47;58.58;98160.09;1796310;79;20990;-66
2022/06/24 07:01:20;;;;;;;2.02;1.37;;;;;;;20.56;57.42;98166.73;1809339;79;20934;-57
2022/06/24 07:03:49;;;;;;;7.22;1.50;;;;;;;20.64;56.92;98167.11;1754207;80;21011;-63
2022/06/24 07:06:15;;;;;;;2.60;1.30;;;;;;;20.71;54.77;98153.11;1776998;80;21063;-60
2022/06/24 07:08:41;;;;;;;1.95;1.40;;;;;;;20.75;53.59;98157.30;1776386;80;20963;-64
2022/06/24 07:11:08;;;;;;;6.87;1.72;;;;;;;20.78;52.98;98156.58;1776503;80;20908;-63
2022/06/24 07:13:37;;;;;;;3.15;1.40;;;;;;;20.85;52.84;98158.10;1788809;79;21388;-59
2022/06/24 07:16:09;;;;;;;3.92;1.40;;;;;;;20.91;51.95;98157.50;1768106;80;21018;-61
2022/06/24 07:18:36;;;;;;;3.17;1.20;;;;;;;20.96;51.03;98160.52;1802998;78;21190;-63
2022/06/24 07:21:03;;;;;;;5.00;1.20;;;;;;;20.99;52.66;98161.16;1810288;79;21400;-65
2022/06/24 07:23:30;;;;;;;4.83;1.37;;;;;;;21.10;52.86;98164.37;1810357;79;21411;-62
2022/06/24 07:25:57;;;;;;;2.25;1.40;;;;;;;21.19;51.54;98165.56;1810267;79;21365;-62
2022/06/24 07:28:27;;;;;;;1.45;1.20;;;;;;;21.31;51.54;98168.17;1810235;79;20869;-61
2022/06/24 07:30:54;;;;;;;3.67;1.20;;;;;;;21.41;50.79;98162.14;1810340;79;21079;-65
2022/06/24 07:33:21;;;;;;;5.92;1.27;;;;;;;21.46;49.07;98157.78;1810208;79;21004;-69
2022/06/24 07:35:47;;;;;;;4.45;1.22;;;;;;;21.53;50.10;98153.84;1809237;78;21390;-63
2022/06/24 07:38:13;;;;;;;4.67;1.40;;;;;;;21.61;49.44;98151.49;1803866;79;21013;-62
2022/06/24 07:40:40;;;;;;;1.98;1.22;;;;;;;21.71;50.43;98150.13;1805493;77;21025;-64
2022/06/24 07:43:07;;;;;;;2.35;1.30;;;;;;;21.76;48.38;98157.43;1799615;77;21533;-60
2022/06/24 07:45:35;;;;;;;4.00;1.10;;;;;;;21.79;46.88;98148.55;1815622;78;20955;-59
2022/06/24 07:48:02;;;;;;;2.00;1.32;;;;;;;21.86;46.72;98153.37;1815658;79;21470;-62
2022/06/24 07:50:28;;;;;;;2.25;1.00;;;;;;;21.95;47.40;98151.20;1815856;78;21438;-61
2022/06/24 07:52:55;;;;;;;5.67;1.20;;;;;;;22.08;46.38;98154.58;1815781;78;20912;-67
2022/06/24 07:58:11;;;;;;;1.20;1.02;;;;;;;22.27;45.77;98140.91;1815629;78;20999;-61
2022/06/24 08:00:38;;;;;;;1.52;1.20;;;;;;;22.36;45.86;98135.42;1815828;79;20952;-64
2022/06/24 08:03:06;;;;;;;2.30;1.12;;;;;;;22.45;44.97;98139.27;1816071;78;20880;-63
2022/06/24 08:05:33;;;;;;;2.85;1.40;;;;;;;22.46;44.86;98144.95;1812184;77;21391;-63
2022/06/24 08:07:59;;;;;;;3.62;1.20;;;;;;;22.48;44.19;98144.80;1800631;78;21089;-64
2022/06/24 08:10:26;;;;;;;1.80;1.20;;;;;;;22.54;44.62;98136.31;1807966;78;21045;-61
2022/06/24 08:12:52;;;;;;;7.17;1.55;;;;;;;22.63;46.41;98140.40;1804594;78;21101;-61
2022/06/24 08:15:19;;;;;;;2.60;1.20;;;;;;;22.72;45.07;98143.66;1809474;78;21049;-67
2022/06/24 08:17:48;;;;;;;2.20;1.30;;;;;;;22.81;45.16;98143.40;1808973;78;21500;-63
2022/06/24 08:20:14;;;;;;;1.42;1.10;;;;;;;22.95;45.64;98129.96;1808787;78;21469;-59
2022/06/24 08:22:41;;;;;;;4.25;1.20;;;;;;;23.10;44.00;98130.39;1803436;78;20914;-59
2022/06/24 08:25:08;;;;;;;2.35;1.10;;;;;;;23.18;44.09;98127.16;1810238;78;21032;-63
2022/06/24 08:27:35;;;;;;;3.50;1.50;;;;;;;23.22;44.49;98130.18;1786348;78;20973;-65
2022/06/24 08:30:03;;;;;;;4.28;1.20;;;;;;;23.26;43.26;98131.00;1804792;77;21061;-60
2022/06/24 08:32:30;;;;;;;1.27;1.17;;;;;;;23.28;42.33;98132.79;1806343;78;21139;-57
2022/06/24 08:34:57;;;;;;;4.22;1.30;;;;;;;23.25;43.61;98133.52;1809175;78;21003;-59
2022/06/24 08:37:23;;;;;;;4.85;1.50;;;;;;;23.24;42.76;98137.42;1805989;78;20964;-65
2022/06/24 08:39:50;;;;;;;1.82;1.40;;;;;;;23.26;44.03;98115.19;1782300;78;21017;-65
2022/06/24 08:42:16;;;;;;;1.12;1.02;;;;;;;23.34;43.82;98125.83;1762898;80;21018;-63
2022/06/24 08:44:42;;;;;;;2.58;1.32;;;;;;;23.44;43.38;98129.89;1800685;78;21078;-59
2022/06/24 08:47:15;;;;;;;3.00;1.32;;;;;;;23.52;43.43;98135.67;1808980;78;21593;-63
2022/06/24 08:49:42;;;;;;;4.08;1.42;;;;;;;23.53;43.17;98131.80;1808698;78;20951;-61
2022/06/24 08:52:10;;;;;;;2.77;1.40;;;;;;;23.48;43.11;98141.08;1811322;79;20980;-61
2022/06/24 08:54:38;;;;;;;1.35;1.10;;;;;;;23.40;41.54;98137.27;1797946;78;21699;-60
2022/06/24 08:57:06;;;;;;;3.25;1.40;;;;;;;23.35;42.25;98132.91;1810886;78;21061;-59
2022/06/24 08:59:32;;;;;;;3.25;2.00;;;;;;;23.39;41.82;98135.70;1806105;78;21508;-57
2022/06/24 09:01:58;;;;;;;4.40;1.75;;;;;;;23.46;41.48;98131.09;1805197;77;21019;-63
2022/06/24 09:04:25;;;;;;;2.02;1.70;;;;;;;23.54;41.54;98123.78;1760214;79;21437;-64
2022/06/24 09:06:51;;;;;;;4.22;1.70;;;;;;;23.58;40.98;98134.17;1813369;79;20999;-61
2022/06/24 09:09:26;;;;;;;3.00;1.35;;;;;;;23.67;41.99;98131.97;1804052;78;21009;-65
2022/06/24 09:11:56;;;;;;;2.55;1.30;;;;;;;23.78;43.03;98119.20;1813576;77;21423;-61
2022/06/24 09:14:23;;;;;;;2.05;1.32;;;;;;;23.90;41.52;98125.00;1816895;77;21569;-63
2022/06/24 09:16:49;;;;;;;2.60;1.37;;;;;;;23.94;41.11;98121.13;1814416;77;21136;-60
2022/06/24 09:19:16;;;;;;;1.47;1.10;;;;;;;23.85;41.76;98118.48;1814841;77;21077;-68
2022/06/24 09:21:43;;;;;;;2.50;1.47;;;;;;;23.63;42.00;98122.91;1804824;78;21085;-63
2022/06/24 09:24:10;;;;;;;3.62;1.37;;;;;;;23.40;41.93;98125.77;1803214;78;21074;-58
2022/06/24 09:26:42;;;;;;;2.52;1.27;;;;;;;23.20;43.22;98126.23;1814935;77;21042;-59
2022/06/24 09:29:14;;;;;;;1.92;1.32;;;;;;;23.07;43.96;98124.30;1823070;77;20969;-57
2022/06/24 09:31:41;;;;;;;2.87;1.20;;;;;;;23.04;43.89;98123.66;1820893;78;20966;-58
2022/06/24 09:34:13;;;;;;;1.77;1.17;;;;;;;22.99;43.12;98122.60;1812309;78;21466;-65
2022/06/24 09:36:45;;;;;;;1.77;1.00;;;;;;;22.94;42.82;98116.88;1806537;78;21004;-59
2022/06/24 09:39:16;;;;;;;2.67;1.10;;;;;;;23.00;42.99;98112.69;1811276;78;20922;-65
2022/06/24 09:41:46;;;;;;;3.45;1.35;;;;;;;23.18;43.46;98110.77;1811254;78;20876;-66
2022/06/24 09:44:13;;;;;;;1.50;1.10;;;;;;;23.41;42.75;98118.36;1806833;77;20971;-61
2022/06/24 09:46:39;;;;;;;3.05;1.40;;;;;;;23.60;42.80;98116.84;1807560;78;21490;-60
2022/06/24 09:49:10;;;;;;;1.30;1.20;;;;;;;23.71;41.77;98109.55;1807669;78;20977;-60
2022/06/24 09:51:36;;;;;;;2.10;1.35;;;;;;;23.81;43.81;98110.26;1824213;78;21519;-63
2022/06/24 09:54:03;;;;;;;5.15;1.50;;;;;;;23.98;42.71;98107.48;1812801;78;20919;-59
2022/06/24 09:56:30;;;;;;;4.55;1.20;;;;;;;24.11;42.88;98111.57;1806382;78;21046;-58
2022/06/24 10:01:42;;;;;;;3.47;1.35;;;;;;;24.14;41.65;98112.96;1803109;77;20967;-63
2022/06/24 10:04:17;;;;;;;1.82;1.10;;;;;;;24.20;41.73;98115.58;1744960;79;21560;-57
2022/06/24 10:06:47;;;;;;;4.42;1.10;;;;;;;24.33;40.38;98104.55;1767155;80;21050;-62
2022/06/24 10:09:13;;;;;;;4.83;1.40;;;;;;;24.47;40.60;98099.80;1758308;79;21058;-59
2022/06/24 10:11:44;;;;;;;1.62;1.20;;;;;;;24.64;40.48;98096.97;1761344;79;21277;-67
2022/06/24 10:14:12;;;;;;;4.62;1.25;;;;;;;24.86;41.37;98098.74;1770261;80;20959;-59
2022/06/24 10:16:41;;;;;;;3.15;1.25;;;;;;;24.98;41.48;98097.06;1775516;80;21379;-57
2022/06/24 10:19:08;;;;;;;1.42;1.07;;;;;;;25.02;40.38;98097.86;1776611;79;21026;-61
2022/06/24 10:21:35;;;;;;;3.37;1.20;;;;;;;25.06;39.67;98093.98;1767492;79;21299;-64
2022/06/24 10:24:11;;;;;;;3.58;1.10;;;;;;;25.11;37.80;98091.45;1802411;79;21100;-63
2022/06/24 10:26:39;;;;;;;1.75;1.22;;;;;;;25.07;39.36;98101.04;1802673;79;21094;-61
2022/06/24 10:29:16;;;;;;;1.72;1.37;;;;;;;25.01;39.66;98106.66;1798130;79;20893;-63
2022/06/24 10:31:52;;;;;;;2.42;1.07;;;;;;;25.00;39.67;98099.62;1775745;79;21043;-62
2022/06/24 10:34:29;;;;;;;1.62;1.10;;;;;;;24.96;39.08;98087.08;1759282;81;21531;-63
2022/06/24 10:37:21;;;;;;;2.58;1.10;;;;;;;24.91;39.18;98084.69;1758445;81;21126;-62
2022/06/24 10:39:55;;;;;;;3.60;1.45;;;;;;;24.90;40.72;98092.69;1759065;81;20872;-60
2022/06/24 10:42:22;;;;;;;2.30;1.20;;;;;;;24.89;41.02;98085.66;1757992;81;20962;-60
2022/06/24 10:44:59;;;;;;;2.05;1.20;;;;;;;24.99;40.63;98084.34;1751500;79;21592;-58
2022/06/24 10:47:36;;;;;;;1.37;1.10;;;;;;;25.08;39.55;98084.02;1750717;81;20994;-63
2022/06/24 10:50:13;;;;;;;1.92;1.27;;;;;;;24.99;40.19;98088.45;1760855;81;21124;-59
2022/06/24 10:52:53;;;;;;;2.45;1.27;;;;;;;24.87;40.17;98083.28;1759881;81;21073;-59
2022/06/24 10:55:28;;;;;;;2.22;1.32;;;;;;;24.91;42.83;98072.36;1760366;81;21016;-64
2022/06/24 10:58:12;;;;;;;1.77;1.10;;;;;;;25.08;41.66;98063.47;1759542;81;20990;-58
2022/06/24 11:00:48;;;;;;;3.62;1.17;;;;;;;25.23;40.61;98068.41;1761379;81;20979;-57
2022/06/24 11:03:13;;;;;;;2.65;1.10;;;;;;;25.34;41.79;98064.58;1762836;80;21386;-59
2022/06/24 11:05:44;;;;;;;2.30;1.30;;;;;;;25.40;39.37;98075.94;1761712;81;21573;-61
2022/06/24 11:08:16;;;;;;;1.55;1.22;;;;;;;25.38;39.14;98067.33;1758546;81;21513;-64
2022/06/24 11:10:49;;;;;;;1.60;1.15;;;;;;;25.38;41.27;98069.48;1759880;81;21100;-59
2022/06/24 11:13:21;;;;;;;4.37;1.20;;;;;;;25.38;39.90;98069.48;1754958;79;21572;-62
2022/06/24 11:15:54;;;;;;;3.22;1.50;;;;;;;25.28;39.92;98065.31;1760133;81;21108;-60
2022/06/24 11:18:24;;;;;;;1.40;1.10;;;;;;;25.21;40.56;98068.81;1760941;80;20963;-62
2022/06/24 11:20:58;;;;;;;6.80;1.30;;;;;;;25.16;40.81;98067.80;1758993;79;21572;-64
2022/06/24 11:23:26;;;;;;;1.90;1.30;;;;;;;25.10;40.47;98063.29;1761095;79;21319;-58
2022/06/24 11:26:11;;;;;;;1.45;1.20;;;;;;;25.10;39.95;98066.03;1760614;81;21596;-65
2022/06/24 11:28:39;;;;;;;4.20;1.45;;;;;;;25.07;39.72;98067.37;1799412;78;21100;-60
2022/06/24 11:31:21;;;;;;;2.37;1.25;;;;;;;25.16;39.48;98056.84;1803830;79;20853;-61
2022/06/24 11:33:51;;;;;;;3.02;1.25;;;;;;;25.37;40.13;98054.19;1808265;78;20882;-62
2022/06/24 11:36:23;;;;;;;2.72;1.37;;;;;;;25.65;40.38;98050.20;1811866;78;20948;-62
2022/06/24 11:38:57;;;;;;;1.85;1.20;;;;;;;25.90;38.38;98053.03;1810126;78;21365;-58
2022/06/24 11:41:31;;;;;;;1.40;1.02;;;;;;;26.09;38.51;98051.30;1809918;78;21855;-60
2022/06/24 11:43:57;;;;;;;3.42;1.50;;;;;;;26.32;37.47;98039.95;1801184;78;20872;-60
2022/06/24 11:46:24;;;;;;;5.92;1.07;;;;;;;26.55;36.97;98037.59;1802691;77;21019;-60
2022/06/24 11:49:06;;;;;;;2.27;1.50;;;;;;;26.74;36.37;98040.50;1799533;78;20981;-59
2022/06/24 11:51:33;;;;;;;2.75;1.20;;;;;;;26.81;36.14;98031.70;1809947;78;21055;-59
2022/06/24 11:54:02;;;;;;;2.15;1.52;;;;;;;26.89;37.19;98031.88;1806748;78;21092;-64